sensor_id;sensor_type;location;lat;lon;timestamp;temperature;humidity
2647;DHT22;1333;50.958;6.770;2024-02-23T00:02:08;7.60;99.90
2647;DHT22;1333;50.958;6.770;2024-02-23T00:04:34;7.50;99.90
2647;DHT22;1333;50.958;6.770;2024-02-23T00:06:59;7.40;99.90
2647;DHT22;1333;50.958;6.770;2024-02-23T00:09:25;7.40;99.90
2647;DHT22;1333;50.958;6.770;2024-02-23T00:11:50;7.30;99.90
2647;DHT22;1333;50.958;6.770;2024-02-23T00:14:16;7.30;99.90
2647;DHT22;1333;50.958;6.770;2024-02-23T00:16:45;7.20;99.90
2647;DHT22;1333;50.958;6.770;2024-02-23T00:19:11;7.10;99.90
2647;DHT22;1333;50.958;6.770;2024-02-23T00:21:39;6.90;99.90
2647;DHT22;1333;50.958;6.770;2024-02-23T00:24:06;6.90;99.90
2647;DHT22;1333;50.958;6.770;2024-02-23T00:26:31;6.60;99.90
2647;DHT22;1333;50.958;6.770;2024-02-23T00:28:57;6.60;99.90
2647;DHT22;1333;50.958;6.770;2024-02-23T00:31:23;6.40;99.90
2647;DHT22;1333;50.958;6.770;2024-02-23T00:33:48;6.30;99.90
2647;DHT22;1333;50.958;6.770;2024-02-23T00:36:14;6.20;99.90
2647;DHT22;1333;50.958;6.770;2024-02-23T00:38:39;6.20;99.90
2647;DHT22;1333;50.958;6.770;2024-02-23T00:41:05;6.10;99.90
2647;DHT22;1333;50.958;6.770;2024-02-23T00:43:38;6.10;99.90
2647;DHT22;1333;50.958;6.770;2024-02-23T00:46:03;6.00;99.90
2647;DHT22;1333;50.958;6.770;2024-02-23T00:48:29;5.90;99.90
2647;DHT22;1333;50.958;6.770;2024-02-23T00:50:55;5.90;99.90
2647;DHT22;1333;50.958;6.770;2024-02-23T00:53:20;5.80;99.90
2647;DHT22;1333;50.958;6.770;2024-02-23T00:55:47;5.80;99.90
2647;DHT22;1333;50.958;6.770;2024-02-23T00:58:12;5.70;99.90
2647;DHT22;1333;50.958;6.770;2024-02-23T01:00:38;5.70;99.90
2647;DHT22;1333;50.958;6.770;2024-02-23T01:03:04;5.70;99.90
2647;DHT22;1333;50.958;6.770;2024-02-23T01:05:30;5.80;99.90
2647;DHT22;1333;50.958;6.770;2024-02-23T01:07:55;5.80;99.90
2647;DHT22;1333;50.958;6.770;2024-02-23T01:10:21;5.80;99.90
2647;DHT22;1333;50.958;6.770;2024-02-23T01:12:47;5.80;99.90
2647;DHT22;1333;50.958;6.770;2024-02-23T01:15:12;5.80;99.90
2647;DHT22;1333;50.958;6.770;2024-02-23T01:17:38;5.80;99.90
2647;DHT22;1333;50.958;6.770;2024-02-23T01:20:04;5.80;99.90
2647;DHT22;1333;50.958;6.770;2024-02-23T01:22:30;5.90;99.90
2647;DHT22;1333;50.958;6.770;2024-02-23T01:24:55;5.80;99.90
2647;DHT22;1333;50.958;6.770;2024-02-23T01:27:21;5.80;99.90
2647;DHT22;1333;50.958;6.770;2024-02-23T01:29:47;5.80;99.90
2647;DHT22;1333;50.958;6.770;2024-02-23T01:32:13;5.80;99.90
2647;DHT22;1333;50.958;6.770;2024-02-23T01:34:38;5.80;99.90
2647;DHT22;1333;50.958;6.770;2024-02-23T01:37:04;5.70;99.90
2647;DHT22;1333;50.958;6.770;2024-02-23T01:39:29;5.70;99.90
2647;DHT22;1333;50.958;6.770;2024-02-23T01:41:55;5.70;99.90
2647;DHT22;1333;50.958;6.770;2024-02-23T01:44:21;5.70;99.90
2647;DHT22;1333;50.958;6.770;2024-02-23T01:46:47;5.60;99.90
2647;DHT22;1333;50.958;6.770;2024-02-23T01:49:13;5.60;99.90
2647;DHT22;1333;50.958;6.770;2024-02-23T01:51:39;5.50;99.90
2647;DHT22;1333;50.958;6.770;2024-02-23T01:54:05;5.50;99.90
2647;DHT22;1333;50.958;6.770;2024-02-23T01:56:32;5.50;99.90
2647;DHT22;1333;50.958;6.770;2024-02-23T01:58:59;5.50;99.90
2647;DHT22;1333;50.958;6.770;2024-02-23T02:01:24;5.50;99.90
2647;DHT22;1333;50.958;6.770;2024-02-23T02:03:50;5.50;99.90
2647;DHT22;1333;50.958;6.770;2024-02-23T02:06:16;5.50;99.90
2647;DHT22;1333;50.958;6.770;2024-02-23T02:08:41;5.40;99.90
2647;DHT22;1333;50.958;6.770;2024-02-23T02:11:07;5.40;99.90
2647;DHT22;1333;50.958;6.770;2024-02-23T02:13:32;5.40;99.90
2647;DHT22;1333;50.958;6.770;2024-02-23T02:16:00;5.40;99.90
2647;DHT22;1333;50.958;6.770;2024-02-23T02:18:26;5.30;99.90
2647;DHT22;1333;50.958;6.770;2024-02-23T02:20:54;5.30;99.90
2647;DHT22;1333;50.958;6.770;2024-02-23T02:23:20;5.20;99.90
2647;DHT22;1333;50.958;6.770;2024-02-23T02:25:52;5.20;99.90
2647;DHT22;1333;50.958;6.770;2024-02-23T02:28:18;5.20;99.90
2647;DHT22;1333;50.958;6.770;2024-02-23T02:30:43;5.20;99.90
2647;DHT22;1333;50.958;6.770;2024-02-23T02:33:09;5.20;99.90
2647;DHT22;1333;50.958;6.770;2024-02-23T02:35:34;5.30;99.90
2647;DHT22;1333;50.958;6.770;2024-02-23T02:38:00;5.30;99.90
2647;DHT22;1333;50.958;6.770;2024-02-23T02:40:25;5.30;99.90
2647;DHT22;1333;50.958;6.770;2024-02-23T02:42:51;5.40;99.90
2647;DHT22;1333;50.958;6.770;2024-02-23T02:45:16;5.30;99.90
2647;DHT22;1333;50.958;6.770;2024-02-23T02:47:42;5.30;99.90
2647;DHT22;1333;50.958;6.770;2024-02-23T02:50:08;5.30;99.90
2647;DHT22;1333;50.958;6.770;2024-02-23T02:52:34;5.30;99.90
2647;DHT22;1333;50.958;6.770;2024-02-23T02:55:00;5.20;99.90
2647;DHT22;1333;50.958;6.770;2024-02-23T02:57:25;5.20;99.90
2647;DHT22;1333;50.958;6.770;2024-02-23T02:59:51;5.20;99.90
2647;DHT22;1333;50.958;6.770;2024-02-23T03:02:17;5.20;99.90
2647;DHT22;1333;50.958;6.770;2024-02-23T03:04:49;5.20;99.90
2647;DHT22;1333;50.958;6.770;2024-02-23T03:07:18;5.30;99.90
2647;DHT22;1333;50.958;6.770;2024-02-23T03:09:44;5.30;99.90
2647;DHT22;1333;50.958;6.770;2024-02-23T03:12:10;5.20;99.90
2647;DHT22;1333;50.958;6.770;2024-02-23T03:14:36;5.20;99.90
2647;DHT22;1333;50.958;6.770;2024-02-23T03:17:04;5.20;99.90
2647;DHT22;1333;50.958;6.770;2024-02-23T03:19:30;5.20;99.90
2647;DHT22;1333;50.958;6.770;2024-02-23T03:21:57;5.10;99.90
2647;DHT22;1333;50.958;6.770;2024-02-23T03:24:23;5.10;99.90
2647;DHT22;1333;50.958;6.770;2024-02-23T03:26:48;5.10;99.90
2647;DHT22;1333;50.958;6.770;2024-02-23T03:29:14;5.10;99.90
2647;DHT22;1333;50.958;6.770;2024-02-23T03:31:40;5.10;99.90
2647;DHT22;1333;50.958;6.770;2024-02-23T03:34:05;5.00;99.90
2647;DHT22;1333;50.958;6.770;2024-02-23T03:36:31;5.10;99.90
2647;DHT22;1333;50.958;6.770;2024-02-23T03:38:56;5.00;99.90
2647;DHT22;1333;50.958;6.770;2024-02-23T03:41:22;5.00;99.90
2647;DHT22;1333;50.958;6.770;2024-02-23T03:43:47;5.00;99.90
2647;DHT22;1333;50.958;6.770;2024-02-23T03:46:13;5.10;99.90
2647;DHT22;1333;50.958;6.770;2024-02-23T03:48:40;5.10;99.90
2647;DHT22;1333;50.958;6.770;2024-02-23T03:51:06;5.20;99.90
2647;DHT22;1333;50.958;6.770;2024-02-23T03:53:32;5.20;99.90
2647;DHT22;1333;50.958;6.770;2024-02-23T03:55:58;5.30;99.90
2647;DHT22;1333;50.958;6.770;2024-02-23T03:58:23;5.30;99.90
2647;DHT22;1333;50.958;6.770;2024-02-23T04:00:49;5.50;99.90
2647;DHT22;1333;50.958;6.770;2024-02-23T04:03:14;5.60;99.90
2647;DHT22;1333;50.958;6.770;2024-02-23T04:05:40;5.60;99.90
2647;DHT22;1333;50.958;6.770;2024-02-23T04:08:06;5.70;99.90
2647;DHT22;1333;50.958;6.770;2024-02-23T04:10:31;5.70;99.90
2647;DHT22;1333;50.958;6.770;2024-02-23T04:12:58;5.80;99.90
2647;DHT22;1333;50.958;6.770;2024-02-23T04:15:23;5.80;99.90
2647;DHT22;1333;50.958;6.770;2024-02-23T04:17:49;5.80;99.90
2647;DHT22;1333;50.958;6.770;2024-02-23T04:20:14;5.90;99.90
2647;DHT22;1333;50.958;6.770;2024-02-23T04:22:40;5.90;99.90
2647;DHT22;1333;50.958;6.770;2024-02-23T04:25:06;5.90;99.90
2647;DHT22;1333;50.958;6.770;2024-02-23T04:27:31;5.90;99.90
2647;DHT22;1333;50.958;6.770;2024-02-23T04:29:57;6.00;99.90
2647;DHT22;1333;50.958;6.770;2024-02-23T04:32:22;6.00;99.90
2647;DHT22;1333;50.958;6.770;2024-02-23T04:34:48;6.00;99.90
2647;DHT22;1333;50.958;6.770;2024-02-23T04:37:14;6.00;99.90
2647;DHT22;1333;50.958;6.770;2024-02-23T04:39:39;6.00;99.90
2647;DHT22;1333;50.958;6.770;2024-02-23T04:42:07;6.00;99.90
2647;DHT22;1333;50.958;6.770;2024-02-23T04:44:34;6.00;99.90
2647;DHT22;1333;50.958;6.770;2024-02-23T04:47:00;5.90;99.90
2647;DHT22;1333;50.958;6.770;2024-02-23T04:49:25;5.80;99.90
2647;DHT22;1333;50.958;6.770;2024-02-23T04:51:51;5.70;99.90
2647;DHT22;1333;50.958;6.770;2024-02-23T04:54:16;5.60;99.90
2647;DHT22;1333;50.958;6.770;2024-02-23T04:56:42;5.60;99.90
2647;DHT22;1333;50.958;6.770;2024-02-23T04:59:07;5.60;99.90
2647;DHT22;1333;50.958;6.770;2024-02-23T05:01:36;5.60;99.90
2647;DHT22;1333;50.958;6.770;2024-02-23T05:04:02;5.50;99.90
2647;DHT22;1333;50.958;6.770;2024-02-23T05:06:29;5.50;99.90
2647;DHT22;1333;50.958;6.770;2024-02-23T05:08:54;5.50;99.90
2647;DHT22;1333;50.958;6.770;2024-02-23T05:11:20;5.50;99.90
2647;DHT22;1333;50.958;6.770;2024-02-23T05:13:45;5.50;99.90
2647;DHT22;1333;50.958;6.770;2024-02-23T05:16:11;5.50;99.90
2647;DHT22;1333;50.958;6.770;2024-02-23T05:18:38;5.40;99.90
2647;DHT22;1333;50.958;6.770;2024-02-23T05:21:04;5.30;99.90
2647;DHT22;1333;50.958;6.770;2024-02-23T05:23:30;5.20;99.90
2647;DHT22;1333;50.958;6.770;2024-02-23T05:25:55;5.20;99.90
2647;DHT22;1333;50.958;6.770;2024-02-23T05:28:21;5.20;99.90
2647;DHT22;1333;50.958;6.770;2024-02-23T05:30:46;5.10;99.90
2647;DHT22;1333;50.958;6.770;2024-02-23T05:33:12;5.10;99.90
2647;DHT22;1333;50.958;6.770;2024-02-23T05:35:38;5.10;99.90
2647;DHT22;1333;50.958;6.770;2024-02-23T05:38:03;5.00;99.90
2647;DHT22;1333;50.958;6.770;2024-02-23T05:40:31;5.00;99.90
2647;DHT22;1333;50.958;6.770;2024-02-23T05:42:58;5.00;99.90
2647;DHT22;1333;50.958;6.770;2024-02-23T05:45:23;5.00;99.90
2647;DHT22;1333;50.958;6.770;2024-02-23T05:47:49;5.00;99.90
2647;DHT22;1333;50.958;6.770;2024-02-23T05:50:15;5.10;99.90
2647;DHT22;1333;50.958;6.770;2024-02-23T05:52:40;5.10;99.90
2647;DHT22;1333;50.958;6.770;2024-02-23T05:55:06;5.10;99.90
2647;DHT22;1333;50.958;6.770;2024-02-23T05:57:33;5.10;99.90
2647;DHT22;1333;50.958;6.770;2024-02-23T05:59:58;5.00;99.90
2647;DHT22;1333;50.958;6.770;2024-02-23T06:02:24;5.00;99.90
2647;DHT22;1333;50.958;6.770;2024-02-23T06:04:50;4.90;99.90
2647;DHT22;1333;50.958;6.770;2024-02-23T06:07:15;4.90;99.90
2647;DHT22;1333;50.958;6.770;2024-02-23T06:09:41;4.80;99.90
2647;DHT22;1333;50.958;6.770;2024-02-23T06:12:07;4.80;99.90
2647;DHT22;1333;50.958;6.770;2024-02-23T06:14:33;4.90;99.90
2647;DHT22;1333;50.958;6.770;2024-02-23T06:16:59;4.90;99.90
2647;DHT22;1333;50.958;6.770;2024-02-23T06:19:25;4.90;99.90
2647;DHT22;1333;50.958;6.770;2024-02-23T06:21:50;4.90;99.90
2647;DHT22;1333;50.958;6.770;2024-02-23T06:24:16;4.90;99.90
2647;DHT22;1333;50.958;6.770;2024-02-23T06:26:42;4.90;99.90
2647;DHT22;1333;50.958;6.770;2024-02-23T06:29:08;4.90;99.90
2647;DHT22;1333;50.958;6.770;2024-02-23T06:31:37;4.90;99.90
2647;DHT22;1333;50.958;6.770;2024-02-23T06:34:03;4.90;99.90
2647;DHT22;1333;50.958;6.770;2024-02-23T06:36:29;4.90;99.90
2647;DHT22;1333;50.958;6.770;2024-02-23T06:38:54;4.80;99.90
2647;DHT22;1333;50.958;6.770;2024-02-23T06:41:20;4.60;99.90
2647;DHT22;1333;50.958;6.770;2024-02-23T06:43:45;4.50;99.90
2647;DHT22;1333;50.958;6.770;2024-02-23T06:46:11;4.40;99.90
2647;DHT22;1333;50.958;6.770;2024-02-23T06:48:37;4.40;99.90
2647;DHT22;1333;50.958;6.770;2024-02-23T06:51:03;4.50;99.90
2647;DHT22;1333;50.958;6.770;2024-02-23T06:53:29;4.50;99.90
2647;DHT22;1333;50.958;6.770;2024-02-23T06:55:55;4.60;99.90
2647;DHT22;1333;50.958;6.770;2024-02-23T06:58:21;4.70;99.90
2647;DHT22;1333;50.958;6.770;2024-02-23T07:00:46;4.70;99.90
2647;DHT22;1333;50.958;6.770;2024-02-23T07:03:13;4.90;99.90
2647;DHT22;1333;50.958;6.770;2024-02-23T07:05:40;5.10;99.90
2647;DHT22;1333;50.958;6.770;2024-02-23T07:08:07;5.30;99.90
2647;DHT22;1333;50.958;6.770;2024-02-23T07:10:33;5.30;99.90
2647;DHT22;1333;50.958;6.770;2024-02-23T07:12:58;5.40;99.90
2647;DHT22;1333;50.958;6.770;2024-02-23T07:15:24;5.60;99.90
2647;DHT22;1333;50.958;6.770;2024-02-23T07:17:53;5.70;99.90
2647;DHT22;1333;50.958;6.770;2024-02-23T07:20:19;5.70;99.90
2647;DHT22;1333;50.958;6.770;2024-02-23T07:22:45;5.60;99.90
2647;DHT22;1333;50.958;6.770;2024-02-23T07:25:11;5.60;99.90
2647;DHT22;1333;50.958;6.770;2024-02-23T07:27:37;5.50;99.90
2647;DHT22;1333;50.958;6.770;2024-02-23T07:30:02;5.60;99.90
2647;DHT22;1333;50.958;6.770;2024-02-23T07:32:30;5.60;99.90
2647;DHT22;1333;50.958;6.770;2024-02-23T07:34:55;5.70;99.90
2647;DHT22;1333;50.958;6.770;2024-02-23T07:37:21;5.70;99.90
2647;DHT22;1333;50.958;6.770;2024-02-23T07:39:46;5.70;99.90
2647;DHT22;1333;50.958;6.770;2024-02-23T07:42:12;5.80;99.90
2647;DHT22;1333;50.958;6.770;2024-02-23T07:44:40;5.90;99.90
2647;DHT22;1333;50.958;6.770;2024-02-23T07:47:05;6.00;99.90
2647;DHT22;1333;50.958;6.770;2024-02-23T07:49:31;6.10;99.90
2647;DHT22;1333;50.958;6.770;2024-02-23T07:51:57;6.30;99.90
2647;DHT22;1333;50.958;6.770;2024-02-23T07:54:22;6.40;99.90
2647;DHT22;1333;50.958;6.770;2024-02-23T07:56:48;6.60;99.90
2647;DHT22;1333;50.958;6.770;2024-02-23T07:59:13;6.70;99.90
2647;DHT22;1333;50.958;6.770;2024-02-23T08:01:39;6.90;99.90
2647;DHT22;1333;50.958;6.770;2024-02-23T08:04:05;7.10;99.90
2647;DHT22;1333;50.958;6.770;2024-02-23T08:06:31;7.40;99.90
2647;DHT22;1333;50.958;6.770;2024-02-23T08:08:56;7.90;99.90
2647;DHT22;1333;50.958;6.770;2024-02-23T08:11:22;8.30;99.90
2647;DHT22;1333;50.958;6.770;2024-02-23T08:13:47;8.60;99.90
2647;DHT22;1333;50.958;6.770;2024-02-23T08:16:15;9.40;99.90
2647;DHT22;1333;50.958;6.770;2024-02-23T08:18:41;10.30;99.90
2647;DHT22;1333;50.958;6.770;2024-02-23T08:21:06;10.70;99.90
2647;DHT22;1333;50.958;6.770;2024-02-23T08:23:32;10.80;99.90
2647;DHT22;1333;50.958;6.770;2024-02-23T08:25:58;11.20;99.90
2647;DHT22;1333;50.958;6.770;2024-02-23T08:28:25;12.30;99.90
2647;DHT22;1333;50.958;6.770;2024-02-23T08:30:51;13.00;99.90
2647;DHT22;1333;50.958;6.770;2024-02-23T08:33:17;14.20;97.80
2647;DHT22;1333;50.958;6.770;2024-02-23T08:35:43;15.50;90.20
2647;DHT22;1333;50.958;6.770;2024-02-23T08:38:08;15.10;76.20
2647;DHT22;1333;50.958;6.770;2024-02-23T08:40:34;15.20;75.00
2647;DHT22;1333;50.958;6.770;2024-02-23T08:43:00;15.60;69.30
2647;DHT22;1333;50.958;6.770;2024-02-23T08:45:26;14.80;67.00
2647;DHT22;1333;50.958;6.770;2024-02-23T08:47:51;13.80;67.00
2647;DHT22;1333;50.958;6.770;2024-02-23T08:50:17;13.70;73.60
2647;DHT22;1333;50.958;6.770;2024-02-23T08:52:42;14.50;73.40
2647;DHT22;1333;50.958;6.770;2024-02-23T08:55:08;14.90;69.70
2647;DHT22;1333;50.958;6.770;2024-02-23T08:57:33;14.50;68.10
2647;DHT22;1333;50.958;6.770;2024-02-23T08:59:59;13.90;65.20
2647;DHT22;1333;50.958;6.770;2024-02-23T09:02:25;13.20;69.30
2647;DHT22;1333;50.958;6.770;2024-02-23T09:04:51;13.20;74.30
2647;DHT22;1333;50.958;6.770;2024-02-23T09:07:16;13.00;73.00
2647;DHT22;1333;50.958;6.770;2024-02-23T09:09:45;12.60;74.00
2647;DHT22;1333;50.958;6.770;2024-02-23T09:12:11;12.10;74.70
2647;DHT22;1333;50.958;6.770;2024-02-23T09:14:37;11.90;78.90
2647;DHT22;1333;50.958;6.770;2024-02-23T09:17:06;11.80;79.20
2647;DHT22;1333;50.958;6.770;2024-02-23T09:19:33;11.60;78.40
2647;DHT22;1333;50.958;6.770;2024-02-23T09:21:59;11.40;81.90
2647;DHT22;1333;50.958;6.770;2024-02-23T09:24:26;11.90;88.10
2647;DHT22;1333;50.958;6.770;2024-02-23T09:26:51;12.40;85.90
2647;DHT22;1333;50.958;6.770;2024-02-23T09:29:17;12.50;85.20
2647;DHT22;1333;50.958;6.770;2024-02-23T09:31:42;13.10;82.60
2647;DHT22;1333;50.958;6.770;2024-02-23T09:34:08;14.40;83.20
2647;DHT22;1333;50.958;6.770;2024-02-23T09:36:33;16.40;77.50
2647;DHT22;1333;50.958;6.770;2024-02-23T09:38:59;18.30;62.60
2647;DHT22;1333;50.958;6.770;2024-02-23T09:41:24;19.10;56.90
2647;DHT22;1333;50.958;6.770;2024-02-23T09:43:50;18.00;52.90
2647;DHT22;1333;50.958;6.770;2024-02-23T09:46:18;17.00;52.00
2647;DHT22;1333;50.958;6.770;2024-02-23T09:48:45;16.10;52.30
2647;DHT22;1333;50.958;6.770;2024-02-23T09:51:12;14.90;53.60
2647;DHT22;1333;50.958;6.770;2024-02-23T09:53:38;14.40;56.20
2647;DHT22;1333;50.958;6.770;2024-02-23T09:56:05;13.70;57.30
2647;DHT22;1333;50.958;6.770;2024-02-23T09:58:34;13.00;59.70
2647;DHT22;1333;50.958;6.770;2024-02-23T10:01:02;12.20;60.10
2647;DHT22;1333;50.958;6.770;2024-02-23T10:03:29;11.80;65.40
2647;DHT22;1333;50.958;6.770;2024-02-23T10:05:58;11.60;66.60
2647;DHT22;1333;50.958;6.770;2024-02-23T10:08:23;11.20;68.70
2647;DHT22;1333;50.958;6.770;2024-02-23T10:10:49;11.60;74.80
2647;DHT22;1333;50.958;6.770;2024-02-23T10:13:19;11.90;73.00
2647;DHT22;1333;50.958;6.770;2024-02-23T10:15:52;12.20;72.10
2647;DHT22;1333;50.958;6.770;2024-02-23T10:18:18;13.40;70.50
2647;DHT22;1333;50.958;6.770;2024-02-23T10:20:44;15.00;64.30
2647;DHT22;1333;50.958;6.770;2024-02-23T10:23:10;16.80;58.50
2647;DHT22;1333;50.958;6.770;2024-02-23T10:25:36;18.60;54.10
2647;DHT22;1333;50.958;6.770;2024-02-23T10:28:03;20.00;50.20
2647;DHT22;1333;50.958;6.770;2024-02-23T10:30:28;20.20;45.40
2647;DHT22;1333;50.958;6.770;2024-02-23T10:32:56;18.80;44.50
2647;DHT22;1333;50.958;6.770;2024-02-23T10:35:23;17.30;46.00
2647;DHT22;1333;50.958;6.770;2024-02-23T10:37:49;16.30;47.70
2647;DHT22;1333;50.958;6.770;2024-02-23T10:40:17;14.80;48.00
2647;DHT22;1333;50.958;6.770;2024-02-23T10:42:44;13.90;50.10
2647;DHT22;1333;50.958;6.770;2024-02-23T10:45:20;13.00;52.20
2647;DHT22;1333;50.958;6.770;2024-02-23T10:47:48;12.90;55.30
2647;DHT22;1333;50.958;6.770;2024-02-23T10:50:14;12.60;56.60
2647;DHT22;1333;50.958;6.770;2024-02-23T10:52:42;12.30;58.20
2647;DHT22;1333;50.958;6.770;2024-02-23T10:55:08;11.80;61.90
2647;DHT22;1333;50.958;6.770;2024-02-23T10:57:35;11.10;62.20
2647;DHT22;1333;50.958;6.770;2024-02-23T11:00:02;10.90;66.70
2647;DHT22;1333;50.958;6.770;2024-02-23T11:02:31;10.70;72.00
2647;DHT22;1333;50.958;6.770;2024-02-23T11:04:59;10.40;77.60
2647;DHT22;1333;50.958;6.770;2024-02-23T11:07:25;10.30;82.40
2647;DHT22;1333;50.958;6.770;2024-02-23T11:10:04;10.00;89.80
2647;DHT22;1333;50.958;6.770;2024-02-23T11:12:30;10.00;95.10
2647;DHT22;1333;50.958;6.770;2024-02-23T11:14:59;9.90;98.30
2647;DHT22;1333;50.958;6.770;2024-02-23T11:17:30;9.70;99.00
2647;DHT22;1333;50.958;6.770;2024-02-23T11:19:56;9.70;99.90
2647;DHT22;1333;50.958;6.770;2024-02-23T11:22:32;9.80;99.90
2647;DHT22;1333;50.958;6.770;2024-02-23T11:25:06;10.00;99.90
2647;DHT22;1333;50.958;6.770;2024-02-23T11:27:38;10.20;99.90
2647;DHT22;1333;50.958;6.770;2024-02-23T11:30:07;10.40;99.90
2647;DHT22;1333;50.958;6.770;2024-02-23T11:32:41;10.70;99.90
2647;DHT22;1333;50.958;6.770;2024-02-23T11:35:07;10.80;99.90
2647;DHT22;1333;50.958;6.770;2024-02-23T11:37:47;10.70;99.40
2647;DHT22;1333;50.958;6.770;2024-02-23T11:40:13;10.70;99.40
2647;DHT22;1333;50.958;6.770;2024-02-23T11:42:41;10.80;99.60
2647;DHT22;1333;50.958;6.770;2024-02-23T11:45:08;10.80;98.40
2647;DHT22;1333;50.958;6.770;2024-02-23T11:47:33;10.80;98.90
2647;DHT22;1333;50.958;6.770;2024-02-23T11:49:59;10.70;97.50
2647;DHT22;1333;50.958;6.770;2024-02-23T11:52:24;10.70;98.50
2647;DHT22;1333;50.958;6.770;2024-02-23T11:54:51;10.80;98.10
2647;DHT22;1333;50.958;6.770;2024-02-23T11:57:16;10.80;97.80
2647;DHT22;1333;50.958;6.770;2024-02-23T11:59:42;10.50;98.10
2647;DHT22;1333;50.958;6.770;2024-02-23T12:02:07;10.40;97.70
2647;DHT22;1333;50.958;6.770;2024-02-23T12:04:33;10.30;97.40
2647;DHT22;1333;50.958;6.770;2024-02-23T12:06:59;10.20;97.70
2647;DHT22;1333;50.958;6.770;2024-02-23T12:09:26;10.10;97.40
2647;DHT22;1333;50.958;6.770;2024-02-23T12:11:51;10.20;98.20
2647;DHT22;1333;50.958;6.770;2024-02-23T12:14:17;10.20;98.60
2647;DHT22;1333;50.958;6.770;2024-02-23T12:16:43;10.10;98.10
2647;DHT22;1333;50.958;6.770;2024-02-23T12:19:08;10.10;98.40
2647;DHT22;1333;50.958;6.770;2024-02-23T12:21:35;10.10;98.00
2647;DHT22;1333;50.958;6.770;2024-02-23T12:24:06;10.00;97.40
2647;DHT22;1333;50.958;6.770;2024-02-23T12:26:33;9.90;97.30
2647;DHT22;1333;50.958;6.770;2024-02-23T12:29:02;10.00;98.90
2647;DHT22;1333;50.958;6.770;2024-02-23T12:31:28;10.20;98.40
2647;DHT22;1333;50.958;6.770;2024-02-23T12:33:54;10.40;98.10
2647;DHT22;1333;50.958;6.770;2024-02-23T12:36:19;11.00;97.00
2647;DHT22;1333;50.958;6.770;2024-02-23T12:38:45;11.70;94.60
2647;DHT22;1333;50.958;6.770;2024-02-23T12:41:11;12.20;94.80
2647;DHT22;1333;50.958;6.770;2024-02-23T12:43:36;13.00;93.30
2647;DHT22;1333;50.958;6.770;2024-02-23T12:46:02;13.50;86.10
2647;DHT22;1333;50.958;6.770;2024-02-23T12:48:28;13.50;79.60
2647;DHT22;1333;50.958;6.770;2024-02-23T12:50:54;13.40;77.90
2647;DHT22;1333;50.958;6.770;2024-02-23T12:53:39;13.00;76.60
2647;DHT22;1333;50.958;6.770;2024-02-23T12:56:09;13.90;81.00
2647;DHT22;1333;50.958;6.770;2024-02-23T12:58:37;13.90;73.40
2647;DHT22;1333;50.958;6.770;2024-02-23T13:01:03;13.50;74.20
2647;DHT22;1333;50.958;6.770;2024-02-23T13:03:28;13.30;74.00
2647;DHT22;1333;50.958;6.770;2024-02-23T13:05:55;13.10;74.50
2647;DHT22;1333;50.958;6.770;2024-02-23T13:08:21;14.30;73.60
2647;DHT22;1333;50.958;6.770;2024-02-23T13:10:48;14.40;69.70
2647;DHT22;1333;50.958;6.770;2024-02-23T13:13:13;15.10;67.10
2647;DHT22;1333;50.958;6.770;2024-02-23T13:15:43;15.40;61.60
2647;DHT22;1333;50.958;6.770;2024-02-23T13:18:08;15.30;61.00
2647;DHT22;1333;50.958;6.770;2024-02-23T13:20:34;15.10;59.80
2647;DHT22;1333;50.958;6.770;2024-02-23T13:23:00;14.60;60.10
2647;DHT22;1333;50.958;6.770;2024-02-23T13:25:25;16.20;61.40
2647;DHT22;1333;50.958;6.770;2024-02-23T13:27:51;17.20;58.60
2647;DHT22;1333;50.958;6.770;2024-02-23T13:30:16;17.40;55.40
2647;DHT22;1333;50.958;6.770;2024-02-23T13:32:43;17.00;54.20
2647;DHT22;1333;50.958;6.770;2024-02-23T13:35:08;16.30;52.90
2647;DHT22;1333;50.958;6.770;2024-02-23T13:37:34;16.40;53.50
2647;DHT22;1333;50.958;6.770;2024-02-23T13:40:00;15.80;52.50
2647;DHT22;1333;50.958;6.770;2024-02-23T13:42:25;14.90;53.10
2647;DHT22;1333;50.958;6.770;2024-02-23T13:44:51;14.40;55.80
2647;DHT22;1333;50.958;6.770;2024-02-23T13:47:16;14.30;57.30
2647;DHT22;1333;50.958;6.770;2024-02-23T13:49:42;14.50;58.50
2647;DHT22;1333;50.958;6.770;2024-02-23T13:52:08;14.30;57.50
2647;DHT22;1333;50.958;6.770;2024-02-23T13:54:33;14.40;58.30
2647;DHT22;1333;50.958;6.770;2024-02-23T13:56:59;14.60;57.50
2647;DHT22;1333;50.958;6.770;2024-02-23T13:59:24;14.90;57.80
2647;DHT22;1333;50.958;6.770;2024-02-23T14:01:50;15.00;58.10
2647;DHT22;1333;50.958;6.770;2024-02-23T14:04:16;15.30;61.70
2647;DHT22;1333;50.958;6.770;2024-02-23T14:06:42;16.00;55.90
2647;DHT22;1333;50.958;6.770;2024-02-23T14:09:08;15.90;56.20
2647;DHT22;1333;50.958;6.770;2024-02-23T14:11:33;15.30;54.80
2647;DHT22;1333;50.958;6.770;2024-02-23T14:13:59;14.50;55.90
2647;DHT22;1333;50.958;6.770;2024-02-23T14:16:24;14.10;57.50
2647;DHT22;1333;50.958;6.770;2024-02-23T14:18:50;14.00;58.40
2647;DHT22;1333;50.958;6.770;2024-02-23T14:21:16;13.60;59.70
2647;DHT22;1333;50.958;6.770;2024-02-23T14:23:43;13.30;59.30
2647;DHT22;1333;50.958;6.770;2024-02-23T14:26:09;13.00;59.90
2647;DHT22;1333;50.958;6.770;2024-02-23T14:28:34;12.80;60.80
2647;DHT22;1333;50.958;6.770;2024-02-23T14:31:00;12.50;61.50
2647;DHT22;1333;50.958;6.770;2024-02-23T14:33:26;12.00;64.10
2647;DHT22;1333;50.958;6.770;2024-02-23T14:35:51;11.70;66.40
2647;DHT22;1333;50.958;6.770;2024-02-23T14:38:17;11.60;70.00
2647;DHT22;1333;50.958;6.770;2024-02-23T14:40:43;11.60;73.70
2647;DHT22;1333;50.958;6.770;2024-02-23T14:43:09;11.40;75.10
2647;DHT22;1333;50.958;6.770;2024-02-23T14:45:35;11.30;77.10
2647;DHT22;1333;50.958;6.770;2024-02-23T14:48:01;11.10;79.20
2647;DHT22;1333;50.958;6.770;2024-02-23T14:50:26;11.00;81.80
2647;DHT22;1333;50.958;6.770;2024-02-23T14:52:52;10.70;84.20
2647;DHT22;1333;50.958;6.770;2024-02-23T14:55:17;10.80;89.30
2647;DHT22;1333;50.958;6.770;2024-02-23T14:57:43;10.60;90.60
2647;DHT22;1333;50.958;6.770;2024-02-23T15:00:09;10.50;90.60
2647;DHT22;1333;50.958;6.770;2024-02-23T15:02:35;10.50;91.40
2647;DHT22;1333;50.958;6.770;2024-02-23T15:05:00;10.40;92.80
2647;DHT22;1333;50.958;6.770;2024-02-23T15:07:26;10.50;93.50
2647;DHT22;1333;50.958;6.770;2024-02-23T15:09:51;10.40;94.20
2647;DHT22;1333;50.958;6.770;2024-02-23T15:12:17;10.50;94.60
2647;DHT22;1333;50.958;6.770;2024-02-23T15:14:42;10.60;95.10
2647;DHT22;1333;50.958;6.770;2024-02-23T15:17:08;10.60;95.80
2647;DHT22;1333;50.958;6.770;2024-02-23T15:19:33;10.70;95.70
2647;DHT22;1333;50.958;6.770;2024-02-23T15:21:59;10.90;95.80
2647;DHT22;1333;50.958;6.770;2024-02-23T15:24:25;10.80;95.50
2647;DHT22;1333;50.958;6.770;2024-02-23T15:26:50;10.70;96.10
2647;DHT22;1333;50.958;6.770;2024-02-23T15:29:17;10.50;96.50
2647;DHT22;1333;50.958;6.770;2024-02-23T15:31:43;10.50;97.90
2647;DHT22;1333;50.958;6.770;2024-02-23T15:34:09;10.50;98.20
2647;DHT22;1333;50.958;6.770;2024-02-23T15:36:35;10.50;98.70
2647;DHT22;1333;50.958;6.770;2024-02-23T15:39:00;10.60;99.90
2647;DHT22;1333;50.958;6.770;2024-02-23T15:41:29;10.80;98.90
2647;DHT22;1333;50.958;6.770;2024-02-23T15:43:55;10.80;98.30
2647;DHT22;1333;50.958;6.770;2024-02-23T15:46:21;10.70;98.20
2647;DHT22;1333;50.958;6.770;2024-02-23T15:48:46;10.90;99.00
2647;DHT22;1333;50.958;6.770;2024-02-23T15:51:12;11.00;99.70
2647;DHT22;1333;50.958;6.770;2024-02-23T15:53:37;11.30;98.60
2647;DHT22;1333;50.958;6.770;2024-02-23T15:56:03;11.10;98.30
2647;DHT22;1333;50.958;6.770;2024-02-23T15:58:29;11.00;98.60
2647;DHT22;1333;50.958;6.770;2024-02-23T16:00:55;10.80;99.10
2647;DHT22;1333;50.958;6.770;2024-02-23T16:03:21;10.60;99.50